createdAt,value
2022-11-03T00:01:35.517Z,24.48
2022-11-03T00:04:02.983Z,22.88
2022-11-03T00:06:30.436Z,26.27
2022-11-03T00:09:01.374Z,20.20
2022-11-03T00:11:28.870Z,20.42
2022-11-03T00:13:57.949Z,18.33
2022-11-03T00:16:25.356Z,26.38
2022-11-03T00:18:53.385Z,23.05
2022-11-03T00:21:20.836Z,19.92
2022-11-03T00:23:48.268Z,21.17
2022-11-03T00:26:18.473Z,24.10
2022-11-03T00:28:47.634Z,18.30
2022-11-03T00:31:19.047Z,18.17
2022-11-03T00:33:46.790Z,21.13
2022-11-03T00:36:15.558Z,20.33
2022-11-03T00:38:46.302Z,22.90
2022-11-03T00:41:26.445Z,20.90
2022-11-03T00:44:14.159Z,20.52
2022-11-03T00:46:41.696Z,20.05
2022-11-03T00:49:09.074Z,22.45
2022-11-03T00:51:36.908Z,16.80
2022-11-03T00:54:05.380Z,19.15
2022-11-03T00:56:35.062Z,19.20
2022-11-03T00:59:39.762Z,21.88
2022-11-03T01:02:25.723Z,20.95
2022-11-03T01:05:11.688Z,16.10
2022-11-03T01:07:39.950Z,18.23
2022-11-03T01:10:08.926Z,17.65
2022-11-03T01:12:36.339Z,20.92
2022-11-03T01:15:03.961Z,15.27
2022-11-03T01:17:31.399Z,18.90
2022-11-03T01:19:58.851Z,17.90
2022-11-03T01:22:26.302Z,19.17
2022-11-03T01:24:53.746Z,20.33
2022-11-03T01:27:24.904Z,22.60
2022-11-03T01:29:52.373Z,16.05
2022-11-03T01:32:19.756Z,17.02
2022-11-03T01:34:47.159Z,18.00
2022-11-03T01:37:14.571Z,20.67
2022-11-03T01:39:42.023Z,22.17
2022-11-03T01:42:12.092Z,20.38
2022-11-03T01:44:42.849Z,21.67
2022-11-03T01:47:14.431Z,18.95
2022-11-03T01:50:01.483Z,20.92
2022-11-03T01:52:34.008Z,22.17
2022-11-03T01:55:03.049Z,22.58
2022-11-03T01:57:35.300Z,19.33
2022-11-03T02:00:03.380Z,21.92
2022-11-03T02:02:39.854Z,19.25
2022-11-03T02:05:07.900Z,18.85
2022-11-03T02:07:38.285Z,18.38
2022-11-03T02:10:06.226Z,20.75
2022-11-03T02:12:33.973Z,16.40
2022-11-03T02:15:03.567Z,26.08
2022-11-03T02:17:31.321Z,16.80
2022-11-03T02:20:11.323Z,19.02
2022-11-03T02:22:38.787Z,20.35
2022-11-03T02:25:06.126Z,20.05
2022-11-03T02:27:33.705Z,17.73
2022-11-03T02:30:01.095Z,20.83
2022-11-03T02:32:41.759Z,19.55
2022-11-03T02:35:21.244Z,22.58
2022-11-03T02:37:49.897Z,18.13
2022-11-03T02:40:19.726Z,19.05
2022-11-03T02:42:48.639Z,21.00
2022-11-03T02:45:18.396Z,14.65
2022-11-03T02:47:46.392Z,16.23
2022-11-03T02:50:13.762Z,19.63
2022-11-03T02:52:44.816Z,15.70
2022-11-03T02:55:33.233Z,19.38
2022-11-03T02:58:12.717Z,17.35
2022-11-03T03:00:44.736Z,17.98
2022-11-03T03:03:18.835Z,16.98
2022-11-03T03:05:46.702Z,18.95
2022-11-03T03:08:15.624Z,22.70
2022-11-03T03:10:47.742Z,17.20
2022-11-03T03:13:17.323Z,17.58
2022-11-03T03:15:57.841Z,16.55
2022-11-03T03:18:36.498Z,19.15
2022-11-03T03:21:08.015Z,18.08
2022-11-03T03:23:37.572Z,19.38
2022-11-03T03:26:08.817Z,17.90
2022-11-03T03:28:49.549Z,18.38
2022-11-03T03:31:19.207Z,21.70
2022-11-03T03:33:48.158Z,16.90
2022-11-03T03:36:17.279Z,16.40
2022-11-03T03:38:53.063Z,17.90
2022-11-03T03:41:23.936Z,17.17
2022-11-03T03:43:53.016Z,19.52
2022-11-03T03:46:21.506Z,17.05
2022-11-03T03:48:49.165Z,20.33
2022-11-03T03:51:17.962Z,17.83
2022-11-03T03:53:45.367Z,21.23
2022-11-03T03:56:13.138Z,17.75
2022-11-03T03:58:40.494Z,20.15
2022-11-03T04:01:11.441Z,17.83
2022-11-03T04:03:39.032Z,19.42
2022-11-03T04:06:06.490Z,19.98
2022-11-03T04:08:33.981Z,23.52
2022-11-03T04:11:19.902Z,18.13
2022-11-03T04:14:05.936Z,18.45
2022-11-03T04:16:53.643Z,23.05
2022-11-03T04:19:44.359Z,20.70
2022-11-03T04:22:17.949Z,20.15
2022-11-03T04:24:49.210Z,20.02
2022-11-03T04:27:16.601Z,17.60
2022-11-03T04:29:44.053Z,24.38
2022-11-03T04:32:15.394Z,19.08
2022-11-03T04:34:43.253Z,18.23
2022-11-03T04:37:13.042Z,23.45
2022-11-03T04:39:40.981Z,31.95
2022-11-03T04:42:16.662Z,28.65
2022-11-03T04:44:44.183Z,25.23
2022-11-03T04:47:12.859Z,31.80
2022-11-03T04:49:40.375Z,21.95
2022-11-03T04:52:18.510Z,19.30
2022-11-03T04:54:46.772Z,22.75
2022-11-03T04:57:15.459Z,21.75
2022-11-03T04:59:44.131Z,21.05
2022-11-03T05:02:14.230Z,23.33
2022-11-03T05:04:41.972Z,23.13
2022-11-03T05:07:17.385Z,22.42
2022-11-03T05:09:44.843Z,20.58
2022-11-03T05:12:12.441Z,23.90
2022-11-03T05:14:40.057Z,20.63
2022-11-03T05:17:22.883Z,22.33
2022-11-03T05:19:51.627Z,22.92
2022-11-03T05:22:20.852Z,24.92
2022-11-03T05:24:48.432Z,20.75
2022-11-03T05:27:22.736Z,17.77
2022-11-03T05:29:52.141Z,17.00
2022-11-03T05:32:25.547Z,20.40
2022-11-03T05:34:54.705Z,15.52
2022-11-03T05:37:31.331Z,17.00
2022-11-03T05:40:05.072Z,16.55
2022-11-03T05:42:35.261Z,23.90
2022-11-03T05:45:13.846Z,20.63
2022-11-03T05:47:41.503Z,16.38
2022-11-03T05:50:22.190Z,17.98
2022-11-03T05:52:52.162Z,17.88
2022-11-03T05:55:23.689Z,17.30
2022-11-03T05:57:51.544Z,18.00
2022-11-03T06:00:43.029Z,15.82
2022-11-03T06:03:18.829Z,15.90
2022-11-03T06:05:47.204Z,20.20
2022-11-03T06:08:18.009Z,17.15
2022-11-03T06:10:54.120Z,36.63
2022-11-03T06:13:23.438Z,92.03
2022-11-03T06:15:52.378Z,81.13
2022-11-03T06:18:21.368Z,90.65
2022-11-03T06:20:56.949Z,78.18
2022-11-03T06:23:24.336Z,61.38
2022-11-03T06:25:56.536Z,62.83
2022-11-03T06:28:27.516Z,40.03
2022-11-03T06:30:54.998Z,32.47
2022-11-03T06:33:29.571Z,28.08
2022-11-03T06:36:02.455Z,21.60
2022-11-03T06:38:31.031Z,22.27
2022-11-03T06:40:59.062Z,21.13
2022-11-03T06:43:28.929Z,17.55
2022-11-03T06:45:58.048Z,14.38
2022-11-03T06:48:26.814Z,16.48
2022-11-03T06:50:54.883Z,10.23
2022-11-03T06:53:24.302Z,19.08
2022-11-03T06:55:52.033Z,17.08
2022-11-03T06:58:27.960Z,15.93
2022-11-03T07:01:03.254Z,18.00
2022-11-03T07:03:33.616Z,15.02
2022-11-03T07:06:04.054Z,12.88
2022-11-03T07:08:31.537Z,14.63
2022-11-03T07:11:04.702Z,13.63
2022-11-03T07:13:33.610Z,15.43
2022-11-03T07:16:01.239Z,19.42
2022-11-03T07:18:31.564Z,16.20
2022-11-03T07:20:59.679Z,14.02
2022-11-03T07:23:30.101Z,11.30
2022-11-03T07:25:59.070Z,14.73
2022-11-03T07:28:29.928Z,8.18
2022-11-03T07:30:57.426Z,13.63
2022-11-03T07:33:26.632Z,10.25
2022-11-03T07:36:14.434Z,11.02
2022-11-03T07:38:43.308Z,14.27
2022-11-03T07:41:15.427Z,14.80
2022-11-03T07:43:43.100Z,19.27
2022-11-03T07:46:15.408Z,15.95
2022-11-03T07:48:42.773Z,14.00
2022-11-03T07:51:17.617Z,12.88
2022-11-03T07:56:22.573Z,14.75
2022-11-03T07:58:52.810Z,11.23
2022-11-03T08:01:25.618Z,16.92
2022-11-03T08:03:53.983Z,18.05
2022-11-03T08:06:21.336Z,12.60
2022-11-03T08:08:48.747Z,17.88
2022-11-03T08:11:16.203Z,13.00
2022-11-03T08:13:43.636Z,9.68
2022-11-03T08:16:11.070Z,12.88
2022-11-03T08:18:38.468Z,15.48
2022-11-03T08:21:05.941Z,14.95
2022-11-03T08:23:33.934Z,12.23
2022-11-03T08:26:01.530Z,18.33
2022-11-03T08:28:29.157Z,12.70
2022-11-03T08:31:02.261Z,12.35
2022-11-03T08:36:02.979Z,14.85
2022-11-03T08:38:30.811Z,18.08
2022-11-03T08:41:01.948Z,17.58
2022-11-03T08:43:29.772Z,14.07
2022-11-03T08:46:03.411Z,10.18
2022-11-03T08:48:37.397Z,15.18
2022-11-03T08:51:04.777Z,15.85
2022-11-03T08:53:32.246Z,12.07
2022-11-03T08:55:59.654Z,11.60
2022-11-03T08:58:27.023Z,11.23
2022-11-03T09:00:54.485Z,11.57
2022-11-03T09:03:21.914Z,18.02
2022-11-03T09:05:49.431Z,16.40
2022-11-03T09:11:04.154Z,14.98
2022-11-03T09:13:31.749Z,16.30
2022-11-03T09:15:59.158Z,14.55
2022-11-03T09:18:26.600Z,13.27
2022-11-03T09:20:54.129Z,13.52
2022-11-03T09:23:21.922Z,14.90
2022-11-03T09:25:49.322Z,16.33
2022-11-03T09:28:16.662Z,14.43
2022-11-03T09:30:44.062Z,17.65
2022-11-03T09:33:11.499Z,15.00
2022-11-03T09:35:38.931Z,12.20
2022-11-03T09:38:07.943Z,12.45
2022-11-03T09:40:36.443Z,9.95
2022-11-03T09:43:04.181Z,11.65
2022-11-03T09:45:32.654Z,16.38
2022-11-03T09:48:00.425Z,13.23
2022-11-03T09:50:27.873Z,14.93
2022-11-03T09:52:55.517Z,14.93
2022-11-03T09:55:26.558Z,13.90
2022-11-03T09:57:55.924Z,10.55
2022-11-03T10:00:24.805Z,13.07
2022-11-03T10:02:52.242Z,10.27
2022-11-03T10:05:27.098Z,10.95
2022-11-03T10:10:23.003Z,12.43
2022-11-03T10:12:52.030Z,13.05
2022-11-03T10:15:20.386Z,13.02
2022-11-03T10:17:50.397Z,12.70
2022-11-03T10:20:19.495Z,10.68
2022-11-03T10:22:47.521Z,10.60
2022-11-03T10:25:33.701Z,9.20
2022-11-03T10:28:27.218Z,9.55
2022-11-03T10:31:11.293Z,11.00
2022-11-03T10:33:40.853Z,11.88
2022-11-03T10:36:08.475Z,11.20
2022-11-03T10:38:36.451Z,11.48
2022-11-03T10:41:20.255Z,12.57
2022-11-03T10:44:08.280Z,13.00
2022-11-03T10:46:49.633Z,11.70
2022-11-03T10:49:19.229Z,10.80
2022-11-03T10:51:50.853Z,10.57
2022-11-03T10:54:19.608Z,11.82
2022-11-03T10:56:48.231Z,9.98
2022-11-03T10:59:23.268Z,10.85
2022-11-03T11:01:50.839Z,9.20
2022-11-03T11:04:19.277Z,9.50
2022-11-03T11:06:47.112Z,11.77
2022-11-03T11:09:16.601Z,10.07
2022-11-03T11:12:06.666Z,8.85
2022-11-03T11:14:39.374Z,8.25
2022-11-03T11:17:07.392Z,9.88
2022-11-03T11:19:54.663Z,10.73
2022-11-03T11:22:24.014Z,9.95
2022-11-03T11:24:51.324Z,13.07
2022-11-03T11:27:31.923Z,14.93
2022-11-03T11:30:00.500Z,7.57
2022-11-03T11:32:42.904Z,13.02
2022-11-03T11:35:11.502Z,11.80
2022-11-03T11:37:39.289Z,10.52
2022-11-03T11:40:29.771Z,8.70
2022-11-03T11:43:03.139Z,9.65
2022-11-03T11:45:49.217Z,10.02
2022-11-03T11:48:19.504Z,14.10
2022-11-03T11:50:47.050Z,11.93
2022-11-03T11:53:19.527Z,10.13
2022-11-03T11:55:49.545Z,8.35
2022-11-03T11:58:35.820Z,11.10
2022-11-03T12:01:04.891Z,8.00
2022-11-03T12:03:45.378Z,9.65
2022-11-03T12:06:13.526Z,11.20
2022-11-03T12:08:41.144Z,10.43
2022-11-03T12:11:09.205Z,15.98
2022-11-03T12:13:37.708Z,9.25
2022-11-03T12:16:05.269Z,11.13
2022-11-03T12:18:39.097Z,11.68
2022-11-03T12:21:14.779Z,12.27
2022-11-03T12:23:43.563Z,14.00
2022-11-03T12:26:18.856Z,13.57
2022-11-03T12:28:46.341Z,12.63
2022-11-03T12:31:13.740Z,14.57
2022-11-03T12:33:41.390Z,13.38
2022-11-03T12:36:09.354Z,10.02
2022-11-03T12:38:37.213Z,9.98
2022-11-03T12:41:24.536Z,13.88
2022-11-03T12:43:53.271Z,13.10
2022-11-03T12:46:21.554Z,12.70
2022-11-03T12:48:49.227Z,11.18
2022-11-03T12:51:17.539Z,9.57
2022-11-03T12:53:45.199Z,14.43
2022-11-03T12:56:13.281Z,8.50
2022-11-03T12:58:41.025Z,11.55
2022-11-03T13:01:08.801Z,11.02
2022-11-03T13:03:37.047Z,14.27
2022-11-03T13:06:05.529Z,10.60
2022-11-03T13:08:33.046Z,10.90
2022-11-03T13:11:00.730Z,14.10
2022-11-03T13:13:28.230Z,13.48
2022-11-03T13:15:55.896Z,14.07
2022-11-03T13:18:23.433Z,18.42
2022-11-03T13:20:50.806Z,15.27
2022-11-03T13:23:20.471Z,14.57
2022-11-03T13:25:50.623Z,15.13
2022-11-03T13:28:18.120Z,11.38
2022-11-03T13:30:45.536Z,12.13
2022-11-03T13:33:12.946Z,12.85
2022-11-03T13:35:40.396Z,14.43
2022-11-03T13:38:07.767Z,16.15
2022-11-03T13:40:56.923Z,13.90
2022-11-03T13:43:23.041Z,14.50
2022-11-03T13:45:50.395Z,12.43
2022-11-03T13:51:11.968Z,13.20
2022-11-03T13:56:28.156Z,13.25
2022-11-03T14:01:43.879Z,11.65
2022-11-03T14:06:59.188Z,10.85
2022-11-03T14:09:26.673Z,12.95
2022-11-03T14:12:12.647Z,10.65
2022-11-03T14:14:40.060Z,14.35
2022-11-03T14:17:07.549Z,13.82
2022-11-03T14:19:39.820Z,15.15
2022-11-03T14:22:10.478Z,10.73
2022-11-03T14:24:37.852Z,11.93
2022-11-03T14:27:05.344Z,13.07
2022-11-03T14:29:32.766Z,11.77
2022-11-03T14:32:00.131Z,13.25
2022-11-03T14:34:27.592Z,14.27
2022-11-03T14:36:55.030Z,12.13
2022-11-03T14:39:22.439Z,13.20
2022-11-03T14:42:05.157Z,14.13
2022-11-03T14:44:33.794Z,10.77
2022-11-03T14:47:01.808Z,15.35
2022-11-03T14:49:29.998Z,11.95
2022-11-03T14:51:57.486Z,15.60
2022-11-03T14:54:25.370Z,12.10
2022-11-03T14:56:53.862Z,13.90
2022-11-03T14:59:21.877Z,18.67
2022-11-03T15:01:49.921Z,18.27
2022-11-03T15:04:17.378Z,13.93
2022-11-03T15:06:45.121Z,15.77
2022-11-03T15:09:15.870Z,17.83
2022-11-03T15:11:43.950Z,18.58
2022-11-03T15:14:12.065Z,22.75
2022-11-03T15:16:40.051Z,21.25
2022-11-03T15:19:08.685Z,15.98
2022-11-03T15:21:36.244Z,17.90
2022-11-03T15:26:51.413Z,17.13
2022-11-03T15:29:18.747Z,16.17
2022-11-03T15:31:48.275Z,17.05
2022-11-03T15:34:16.279Z,15.10
2022-11-03T15:36:43.818Z,20.25
2022-11-03T15:39:11.201Z,15.13
2022-11-03T15:41:38.533Z,16.90
2022-11-03T15:44:05.926Z,28.17
2022-11-03T15:46:33.612Z,40.72
2022-11-03T15:49:01.078Z,34.47
2022-11-03T15:51:28.538Z,28.63
2022-11-03T15:53:58.784Z,24.70
2022-11-03T15:56:29.659Z,15.15
2022-11-03T15:58:57.273Z,19.75
2022-11-03T16:01:24.853Z,15.48
2022-11-03T16:03:52.375Z,16.05
2022-11-03T16:06:26.927Z,15.50
2022-11-03T16:09:02.451Z,15.88
2022-11-03T16:11:29.845Z,21.20
2022-11-03T16:13:57.249Z,17.27
2022-11-03T16:16:24.682Z,15.35
2022-11-03T16:18:52.014Z,16.48
2022-11-03T16:21:19.518Z,14.88
2022-11-03T16:23:46.864Z,11.75
2022-11-03T16:26:14.211Z,14.82
2022-11-03T16:28:41.599Z,15.75
2022-11-03T16:31:08.988Z,21.83
2022-11-03T16:33:36.317Z,12.00
2022-11-03T16:36:03.788Z,14.60
2022-11-03T16:38:31.207Z,13.45
2022-11-03T16:40:58.861Z,17.60
2022-11-03T16:43:26.401Z,11.77
2022-11-03T16:45:53.790Z,16.02
2022-11-03T16:48:21.435Z,16.65
2022-11-03T16:50:51.557Z,14.43
2022-11-03T16:53:21.843Z,12.73
2022-11-03T16:55:49.686Z,13.98
2022-11-03T16:58:17.403Z,20.02
2022-11-03T17:00:44.864Z,17.30
2022-11-03T17:03:12.444Z,16.33
2022-11-03T17:05:39.846Z,16.85
2022-11-03T17:08:20.500Z,16.05
2022-11-03T17:10:54.692Z,13.45
2022-11-03T17:13:22.035Z,16.67
2022-11-03T17:15:49.565Z,19.35
2022-11-03T17:18:16.923Z,16.80
2022-11-03T17:20:44.390Z,14.77
2022-11-03T17:23:11.774Z,16.30
2022-11-03T17:25:39.562Z,21.42
2022-11-03T17:28:07.456Z,16.88
2022-11-03T17:30:35.731Z,17.42
2022-11-03T17:33:06.513Z,20.92
2022-11-03T17:35:39.811Z,16.08
2022-11-03T17:38:09.499Z,17.60
2022-11-03T17:40:37.264Z,16.13
2022-11-03T17:43:05.553Z,15.65
2022-11-03T17:45:33.400Z,16.90
2022-11-03T17:48:00.749Z,18.75
2022-11-03T17:50:28.109Z,16.35
2022-11-03T17:52:55.619Z,19.80
2022-11-03T17:55:30.465Z,17.05
2022-11-03T17:58:02.235Z,18.35
2022-11-03T18:00:30.323Z,17.90
2022-11-03T18:02:57.781Z,15.00
2022-11-03T18:05:26.982Z,16.00
2022-11-03T18:07:54.988Z,19.88
2022-11-03T18:10:23.835Z,16.48
2022-11-03T18:13:11.399Z,21.25
2022-11-03T18:15:41.434Z,17.40
2022-11-03T18:18:13.663Z,16.10
2022-11-03T18:20:43.165Z,27.10
2022-11-03T18:23:17.977Z,19.65
2022-11-03T18:25:45.760Z,19.75
2022-11-03T18:28:13.275Z,21.30
2022-11-03T18:30:41.329Z,17.02
2022-11-03T18:33:26.965Z,20.60
2022-11-03T18:35:54.970Z,19.70
2022-11-03T18:38:23.378Z,18.02
2022-11-03T18:40:50.858Z,15.43
2022-11-03T18:43:19.845Z,18.58
2022-11-03T18:45:47.598Z,18.15
2022-11-03T18:48:19.611Z,18.00
2022-11-03T18:50:54.805Z,19.23
2022-11-03T18:53:24.190Z,16.02
2022-11-03T18:55:51.950Z,17.83
2022-11-03T18:58:21.486Z,18.67
2022-11-03T19:00:49.013Z,16.23
2022-11-03T19:03:17.897Z,20.20
2022-11-03T19:05:49.931Z,20.25
2022-11-03T19:08:26.153Z,23.27
2022-11-03T19:10:53.802Z,20.88
2022-11-03T19:13:29.498Z,31.30
2022-11-03T19:15:57.974Z,69.88
2022-11-03T19:18:26.988Z,22.90
2022-11-03T19:20:54.379Z,16.30
2022-11-03T19:23:21.842Z,16.13
2022-11-03T19:25:58.593Z,15.75
2022-11-03T19:28:27.444Z,16.98
2022-11-03T19:30:57.849Z,16.45
2022-11-03T19:33:27.515Z,14.45
2022-11-03T19:35:54.947Z,12.88
2022-11-03T19:38:22.406Z,16.55
2022-11-03T19:41:08.575Z,15.70
2022-11-03T19:43:36.380Z,16.05
2022-11-03T19:46:05.023Z,16.92
2022-11-03T19:48:33.930Z,15.88
2022-11-03T19:51:01.394Z,14.82
2022-11-03T19:53:29.855Z,18.75
2022-11-03T19:55:57.635Z,16.52
2022-11-03T19:58:26.336Z,18.77
2022-11-03T20:00:54.376Z,14.88
2022-11-03T20:03:25.092Z,13.65
2022-11-03T20:05:53.950Z,18.15
2022-11-03T20:08:25.639Z,14.63
2022-11-03T20:10:53.429Z,17.27
2022-11-03T20:13:22.030Z,16.63
2022-11-03T20:15:49.608Z,14.75
2022-11-03T20:18:17.270Z,14.25
2022-11-03T20:20:48.152Z,14.85
2022-11-03T20:23:41.804Z,16.80
2022-11-03T20:26:18.260Z,18.30
2022-11-03T20:28:45.766Z,17.20
2022-11-03T20:31:13.719Z,14.15
2022-11-03T20:33:41.158Z,15.70
2022-11-03T20:36:14.226Z,14.15
2022-11-03T20:38:41.722Z,16.00
2022-11-03T20:41:12.074Z,15.65
2022-11-03T20:43:40.944Z,15.13
2022-11-03T20:46:21.486Z,16.30
2022-11-03T20:48:48.949Z,17.67
2022-11-03T20:51:20.654Z,15.05
2022-11-03T20:53:48.409Z,19.13
2022-11-03T20:56:19.919Z,17.70
2022-11-03T20:58:47.619Z,21.85
2022-11-03T21:01:16.433Z,18.05
2022-11-03T21:03:58.920Z,16.10
2022-11-03T21:06:28.114Z,17.38
2022-11-03T21:08:55.661Z,19.17
2022-11-03T21:11:28.019Z,17.92
2022-11-03T21:13:57.311Z,14.95
2022-11-03T21:16:44.442Z,14.30
2022-11-03T21:20:01.065Z,15.45
2022-11-03T21:22:51.386Z,17.30
2022-11-03T21:25:19.976Z,19.65
2022-11-03T21:27:49.540Z,15.13
2022-11-03T21:30:18.065Z,19.83
2022-11-03T21:32:45.485Z,16.02
2022-11-03T21:35:16.645Z,15.27
2022-11-03T21:37:44.134Z,18.95
2022-11-03T21:40:12.027Z,15.93
2022-11-03T21:42:58.305Z,15.35
2022-11-03T21:45:26.090Z,18.80
2022-11-03T21:48:14.361Z,18.02
2022-11-03T21:50:42.698Z,16.77
2022-11-03T21:53:10.937Z,17.35
2022-11-03T21:55:38.733Z,19.10
2022-11-03T21:58:06.179Z,16.58
2022-11-03T22:00:33.895Z,19.55
2022-11-03T22:03:01.970Z,16.50
2022-11-03T22:05:29.522Z,17.02
2022-11-03T22:07:57.017Z,19.75
2022-11-03T22:10:24.886Z,19.27
2022-11-03T22:12:52.396Z,19.95
2022-11-03T22:15:38.323Z,17.70
2022-11-03T22:18:07.070Z,19.65
2022-11-03T22:20:55.292Z,18.05
2022-11-03T22:23:41.277Z,20.67
2022-11-03T22:26:32.011Z,17.60
2022-11-03T22:29:25.978Z,19.52
2022-11-03T22:31:53.424Z,16.85
2022-11-03T22:34:39.562Z,16.63
2022-11-03T22:37:07.006Z,15.60
2022-11-03T22:39:52.791Z,17.67
2022-11-03T22:42:38.757Z,18.35
2022-11-03T22:45:25.098Z,17.42
2022-11-03T22:47:57.494Z,17.73
2022-11-03T22:50:25.318Z,18.98
2022-11-03T22:52:52.665Z,18.27
2022-11-03T22:55:20.029Z,16.08
2022-11-03T22:57:47.439Z,18.35
2022-11-03T23:00:15.221Z,16.92
2022-11-03T23:02:42.616Z,18.45
2022-11-03T23:05:10.133Z,17.10
2022-11-03T23:07:41.284Z,20.00
2022-11-03T23:10:09.418Z,20.33
2022-11-03T23:12:36.769Z,24.17
2022-11-03T23:15:23.031Z,20.08
2022-11-03T23:18:08.958Z,20.63
2022-11-03T23:20:57.043Z,21.58
2022-11-03T23:23:42.922Z,20.27
2022-11-03T23:26:10.326Z,19.67
2022-11-03T23:28:37.750Z,20.63
2022-11-03T23:31:05.294Z,18.10
2022-11-03T23:33:32.948Z,19.52
2022-11-03T23:36:06.759Z,18.58
2022-11-03T23:38:34.522Z,19.65
2022-11-03T23:41:02.470Z,23.55
2022-11-03T23:43:29.902Z,21.17
2022-11-03T23:46:15.823Z,22.55
2022-11-03T23:48:46.098Z,18.67
2022-11-03T23:51:23.498Z,22.08
2022-11-03T23:53:51.146Z,21.73
2022-11-03T23:56:39.860Z,18.60
2022-11-03T23:59:07.997Z,17.95
